SALOXN 241450Z 01009KT 12KM FEW300CI 18/07 Q1018 RMK FEW